TRA917V EHAM-LIEO
Flight info
| Callsign | TRA917V |
|---|---|
| Flight time | N/A |
| Altitude | 35000 |
| Route | WOODY N872 NIK M624 RITAX DCT SUTAL DCT GTQ DCT DEVDI DCT ODINA DCT MONEB DCT SPEZI DCT BEGUD DCT BATOX |
| Aircraft | B738/M-SDE2E3FGIJ1RWXYZ/LB1 |
Departure
| Time | N/A |
|---|---|
| Airport | Amsterdam Airport Schiphol (EHAM) |
Arrival
| Time | 2026-04-28 19:24 |
|---|---|
| Airport | Olbia Costa Smeralda Airport (LIEO) |
| Time | Latitude | Longitude | Altitude | Speed | Heading |
|---|---|---|---|---|---|
| 2026-04-28 19:03 | 41.21932 | 10.15073 | 19857 ft | 362 kts | 194° |
| 2026-04-28 19:03 | 41.19597 | 10.13949 | 19591 ft | 353 kts | 211° |
| 2026-04-28 19:04 | 41.17590 | 10.12116 | 19382 ft | 351 kts | 218° |
| 2026-04-28 19:04 | 41.15627 | 10.10125 | 19151 ft | 359 kts | 218° |
| 2026-04-28 19:04 | 41.13642 | 10.08080 | 18916 ft | 361 kts | 219° |
| 2026-04-28 19:04 | 41.11657 | 10.06048 | 18675 ft | 360 kts | 218° |
| 2026-04-28 19:05 | 41.09669 | 10.04031 | 18351 ft | 357 kts | 218° |
| 2026-04-28 19:05 | 41.07699 | 10.02047 | 17872 ft | 354 kts | 218° |
| 2026-04-28 19:05 | 41.05741 | 10.00085 | 17373 ft | 353 kts | 218° |
| 2026-04-28 19:05 | 41.03781 | 9.98126 | 16834 ft | 352 kts | 218° |
| 2026-04-28 19:06 | 41.01824 | 9.96172 | 16280 ft | 353 kts | 218° |
| 2026-04-28 19:06 | 41.00522 | 9.94873 | 15893 ft | 354 kts | 217° |
| 2026-04-28 19:06 | 40.97898 | 9.92260 | 14984 ft | 359 kts | 217° |
| 2026-04-28 19:06 | 40.95902 | 9.90257 | 14396 ft | 358 kts | 220° |
| 2026-04-28 19:07 | 40.94271 | 9.87842 | 13947 ft | 347 kts | 237° |
| 2026-04-28 19:07 | 40.92999 | 9.85248 | 13750 ft | 327 kts | 236° |
| 2026-04-28 19:07 | 40.91765 | 9.82824 | 13610 ft | 309 kts | 237° |
| 2026-04-28 19:07 | 40.90586 | 9.80543 | 13453 ft | 293 kts | 236° |
| 2026-04-28 19:08 | 40.89463 | 9.78381 | 13328 ft | 278 kts | 236° |
| 2026-04-28 19:08 | 40.88379 | 9.76298 | 13242 ft | 273 kts | 236° |
| 2026-04-28 19:08 | 40.87307 | 9.74238 | 13135 ft | 271 kts | 236° |
| 2026-04-28 19:08 | 40.86242 | 9.72195 | 13027 ft | 269 kts | 236° |
| 2026-04-28 19:09 | 40.85177 | 9.70153 | 12845 ft | 271 kts | 236° |
| 2026-04-28 19:09 | 40.84119 | 9.68126 | 12647 ft | 271 kts | 236° |
| 2026-04-28 19:09 | 40.83051 | 9.66080 | 12473 ft | 269 kts | 236° |
| 2026-04-28 19:09 | 40.81993 | 9.64057 | 12292 ft | 267 kts | 236° |
| 2026-04-28 19:10 | 40.80940 | 9.62044 | 12114 ft | 265 kts | 236° |
| 2026-04-28 19:10 | 40.79894 | 9.60047 | 11933 ft | 262 kts | 236° |
| 2026-04-28 19:10 | 40.78863 | 9.58077 | 11750 ft | 260 kts | 236° |
| 2026-04-28 19:10 | 40.77838 | 9.56114 | 11601 ft | 260 kts | 236° |
| 2026-04-28 19:11 | 40.76809 | 9.54147 | 11434 ft | 263 kts | 235° |
| 2026-04-28 19:11 | 40.75767 | 9.52159 | 11247 ft | 263 kts | 236° |
| 2026-04-28 19:11 | 40.74739 | 9.50196 | 11075 ft | 263 kts | 235° |
| 2026-04-28 19:11 | 40.73687 | 9.48194 | 10879 ft | 262 kts | 235° |
| 2026-04-28 19:12 | 40.72661 | 9.46239 | 10717 ft | 261 kts | 235° |
| 2026-04-28 19:12 | 40.71624 | 9.44267 | 10540 ft | 262 kts | 235° |
| 2026-04-28 19:12 | 40.70583 | 9.42289 | 10362 ft | 262 kts | 235° |
| 2026-04-28 19:12 | 40.69894 | 9.40981 | 10248 ft | 262 kts | 235° |
| 2026-04-28 19:13 | 40.68853 | 9.39004 | 10070 ft | 262 kts | 235° |
| 2026-04-28 19:13 | 40.67813 | 9.37033 | 9875 ft | 261 kts | 235° |
| 2026-04-28 19:13 | 40.66774 | 9.35065 | 9680 ft | 260 kts | 234° |
| 2026-04-28 19:13 | 40.65744 | 9.33117 | 9231 ft | 261 kts | 234° |
| 2026-04-28 19:14 | 40.64705 | 9.31148 | 8725 ft | 262 kts | 234° |
| 2026-04-28 19:14 | 40.63665 | 9.29176 | 8229 ft | 262 kts | 234° |
| 2026-04-28 19:14 | 40.62627 | 9.27208 | 7735 ft | 263 kts | 234° |
| 2026-04-28 19:14 | 40.61582 | 9.25229 | 7249 ft | 263 kts | 234° |
| 2026-04-28 19:15 | 40.60537 | 9.23253 | 6767 ft | 263 kts | 233° |
| 2026-04-28 19:15 | 40.59549 | 9.21221 | 6275 ft | 265 kts | 245° |
| 2026-04-28 19:15 | 40.59393 | 9.18864 | 6062 ft | 258 kts | 281° |
| 2026-04-28 19:15 | 40.59778 | 9.17409 | 6055 ft | 253 kts | 295° |
| 2026-04-28 19:16 | 40.61278 | 9.15126 | 5996 ft | 244 kts | 325° |
| 2026-04-28 19:16 | 40.62793 | 9.14302 | 6003 ft | 237 kts | 349° |
| 2026-04-28 19:16 | 40.64429 | 9.14269 | 6031 ft | 237 kts | 9° |
| 2026-04-28 19:16 | 40.66003 | 9.15006 | 6021 ft | 239 kts | 33° |
| 2026-04-28 19:17 | 40.67358 | 9.16243 | 6003 ft | 241 kts | 37° |
| 2026-04-28 19:17 | 40.68710 | 9.17530 | 6014 ft | 239 kts | 37° |
| 2026-04-28 19:17 | 40.70057 | 9.18816 | 6002 ft | 239 kts | 37° |
| 2026-04-28 19:17 | 40.71404 | 9.20101 | 6007 ft | 239 kts | 37° |
| 2026-04-28 19:18 | 40.72755 | 9.21391 | 6004 ft | 239 kts | 37° |
| 2026-04-28 19:18 | 40.74109 | 9.22681 | 5865 ft | 241 kts | 37° |
| 2026-04-28 19:18 | 40.75302 | 9.24191 | 5613 ft | 236 kts | 53° |
| 2026-04-28 19:18 | 40.76330 | 9.25897 | 5184 ft | 234 kts | 53° |
| 2026-04-28 19:19 | 40.77276 | 9.27576 | 4824 ft | 223 kts | 56° |
| 2026-04-28 19:19 | 40.78141 | 9.29212 | 4491 ft | 212 kts | 56° |
| 2026-04-28 19:19 | 40.78958 | 9.30786 | 4161 ft | 204 kts | 57° |
| 2026-04-28 19:19 | 40.79749 | 9.32312 | 3850 ft | 199 kts | 57° |
| 2026-04-28 19:20 | 40.80523 | 9.33803 | 3537 ft | 194 kts | 57° |
| 2026-04-28 19:20 | 40.81280 | 9.35263 | 3267 ft | 193 kts | 57° |
| 2026-04-28 19:20 | 40.82042 | 9.36729 | 2984 ft | 195 kts | 56° |
| 2026-04-28 19:20 | 40.82789 | 9.38167 | 2657 ft | 188 kts | 56° |
| 2026-04-28 19:21 | 40.83513 | 9.39559 | 2375 ft | 180 kts | 58° |
| 2026-04-28 19:21 | 40.84206 | 9.40892 | 2089 ft | 172 kts | 57° |
| 2026-04-28 19:21 | 40.84868 | 9.42166 | 1837 ft | 166 kts | 57° |
| 2026-04-28 19:21 | 40.85502 | 9.43385 | 1619 ft | 154 kts | 57° |
| 2026-04-28 19:22 | 40.86096 | 9.44525 | 1348 ft | 147 kts | 57° |
| 2026-04-28 19:22 | 40.86484 | 9.45271 | 1185 ft | 146 kts | 57° |
| 2026-04-28 19:22 | 40.87254 | 9.46754 | 896 ft | 150 kts | 58° |
| 2026-04-28 19:22 | 40.87858 | 9.47906 | 696 ft | 151 kts | 58° |
| 2026-04-28 19:23 | 40.88433 | 9.49042 | 420 ft | 147 kts | 59° |
| 2026-04-28 19:23 | 40.89023 | 9.50126 | 203 ft | 144 kts | 57° |
| 2026-04-28 19:23 | 40.89563 | 9.51213 | 38 ft | 135 kts | 54° |
| 2026-04-28 19:23 | 40.90015 | 9.52048 | 32 ft | 81 kts | 55° |
| 2026-04-28 19:24 | 40.90241 | 9.52480 | 34 ft | 39 kts | 54° |
| 2026-04-28 19:24 | 40.90335 | 9.52654 | 33 ft | 11 kts | 49° |
| 2026-04-28 19:24 | 40.90404 | 9.52690 | 33 ft | 11 kts | 359° |
| 2026-04-28 19:24 | 40.90451 | 9.52629 | 33 ft | 10 kts | 276° |
| 2026-04-28 19:25 | 40.90456 | 9.52534 | 33 ft | 10 kts | 271° |
| 2026-04-28 19:25 | 40.90430 | 9.52449 | 33 ft | 10 kts | 238° |
| 2026-04-28 19:25 | 40.90392 | 9.52375 | 33 ft | 10 kts | 234° |
| 2026-04-28 19:25 | 40.90354 | 9.52304 | 33 ft | 9 kts | 235° |
| 2026-04-28 19:26 | 40.90317 | 9.52234 | 33 ft | 9 kts | 234° |
| 2026-04-28 19:26 | 40.90281 | 9.52167 | 33 ft | 9 kts | 234° |
| 2026-04-28 19:26 | 40.90247 | 9.52100 | 33 ft | 9 kts | 236° |
| 2026-04-28 19:26 | 40.90214 | 9.52035 | 33 ft | 8 kts | 234° |
| 2026-04-28 19:27 | 40.90197 | 9.52004 | 33 ft | 0 kts | 236° |
| 2026-04-28 19:27 | 40.90190 | 9.51991 | 33 ft | 3 kts | 235° |
| 2026-04-28 19:28 | 40.90176 | 9.51956 | 33 ft | 5 kts | 253° |
| 2026-04-28 19:28 | 40.90177 | 9.51912 | 33 ft | 5 kts | 280° |
| 2026-04-28 19:28 | 40.90185 | 9.51858 | 33 ft | 6 kts | 279° |
| 2026-04-28 19:28 | 40.90198 | 9.51813 | 33 ft | 4 kts | 307° |
| 2026-04-28 19:29 | 40.90218 | 9.51789 | 33 ft | 4 kts | 321° |
| 2026-04-28 19:29 | 40.90223 | 9.51768 | 33 ft | 4 kts | 264° |
| 2026-04-28 19:29 | 40.90205 | 9.51728 | 33 ft | 4 kts | 234° |
| 2026-04-28 19:29 | 40.90190 | 9.51701 | 33 ft | 4 kts | 234° |
| 2026-04-28 19:30 | 40.90177 | 9.51673 | 33 ft | 4 kts | 252° |
| 2026-04-28 19:30 | 40.90191 | 9.51648 | 32 ft | 4 kts | 330° |
| 2026-04-28 19:30 | 40.90210 | 9.51631 | 33 ft | 3 kts | 326° |
| 2026-04-28 19:30 | 40.90214 | 9.51627 | 33 ft | 0 kts | 325° |
| 2026-04-28 19:31 | 40.90218 | 9.51624 | 33 ft | 2 kts | 325° |
| 2026-04-28 19:31 | 40.90223 | 9.51619 | 33 ft | 0 kts | 325° |